Latest Weather Observations for West Roebuck

IDW60801

Issued at 1:02 am WST Saturday 1 August 2015 (issued every 30 minutes, with the page automatically refreshed every 10 minutes)

About weather observations | Map of weather stations | Latest weather observations for WA | Other Formats
Station Details ID: 003096 Name: WEST ROEBUCK Lat: -17.90 Lon: 122.31 Height: 32.0 m
Data from the previous 72 hours. | See also: Recent months at West Roebuck
Date/Time
WST
Temp
°C
App
Temp
°C
Dew
Point
Rel
Hum
%
Delta-T
°C
Wind Press
QNH
hPa
Press
MSL
hPa
Rain
since 9 am
mm
Dir
 
Spd
km/h
Gust
km/h
Spd
kts
Gust
kts
01/01:00am 17.4 - - - - NW 9 11 5 6 - - 0.0
01/12:30am 16.6 - - - - NNW 9 11 5 6 - - 0.0
01/12:00am 16.5 - - - - NNW 9 13 5 7 - - 0.0
 
Date/Time
WST
Temp
°C
App
Temp
°C
Dew
Point
Rel
Hum
%
Delta-T
°C
Wind Press
QNH
hPa
Press
MSL
hPa
Rain
since 9 am
mm
Dir
 
Spd
km/h
Gust
km/h
Spd
kts
Gust
kts
31/11:30pm 17.4 - - - - NNW 7 9 4 5 - - 0.0
31/11:00pm 17.9 - - - - N 9 11 5 6 - - 0.0
31/10:30pm 17.3 - - - - NNW 11 11 6 6 - - 0.0
31/10:00pm 16.8 - - - - N 9 11 5 6 - - 0.0
31/09:30pm 17.5 - - - - N 7 9 4 5 - - 0.0
31/09:00pm 19.1 - - - - N 9 11 5 6 - - 0.0
31/08:30pm 18.8 - - - - NNW 9 11 5 6 - - 0.0
31/08:00pm 19.5 - - - - N 9 9 5 5 - - 0.0
31/07:30pm 19.5 - - - - NW 9 9 5 5 - - 0.0
31/07:00pm 20.5 - - - - NNW 7 9 4 5 - - 0.0
31/06:30pm 21.2 - - - - NW 11 13 6 7 - - 0.0
31/06:00pm 22.7 - - - - NW 11 17 6 9 - - 0.0
31/05:30pm 24.0 - - - - WNW 15 20 8 11 - - 0.0
31/05:00pm 25.7 - - - - W 15 20 8 11 - - 0.0
31/04:30pm 27.2 - - - - W 19 24 10 13 - - 0.0
31/04:00pm 28.4 - - - - W 19 28 10 15 - - 0.0
31/03:30pm 28.5 - - - - W 20 30 11 16 - - 0.0
31/03:00pm 29.4 - - - - W 20 28 11 15 - - 0.0
31/02:30pm 30.3 - - - - WSW 20 28 11 15 - - 0.0
31/02:00pm 30.7 - - - - W 20 28 11 15 - - 0.0
31/01:30pm 31.4 - - - - W 19 26 10 14 - - 0.0
31/01:00pm 31.3 - - - - WSW 19 28 10 15 - - 0.0
31/12:30pm 31.1 - - - - SW 17 24 9 13 - - 0.0
31/12:00pm 31.4 - - - - SW 13 20 7 11 - - 0.0
31/11:30am 32.1 - - - - WSW 9 15 5 8 - - 0.0
31/11:00am 30.9 - - - - W 13 24 7 13 - - 0.0
31/10:30am 30.0 - - - - SE 6 13 3 7 - - 0.0
31/10:00am 29.1 - - - - SSE 7 11 4 6 - - 0.0
31/09:30am 27.7 - - - - SSE 7 11 4 6 - - 0.0
31/09:00am 25.9 - - - - SSE 9 11 5 6 - - 0.0
31/08:30am 24.2 - - - - SSE 7 13 4 7 - - 0.0
31/08:00am 21.5 - - - - ESE 6 9 3 5 - - 0.0
31/07:30am 18.7 - - - - ENE 9 11 5 6 - - 0.0
31/07:00am 14.9 - - - - ENE 9 11 5 6 - - 0.0
31/06:30am 12.7 - - - - E 13 15 7 8 - - 0.0
31/06:00am 13.0 - - - - E 11 13 6 7 - - 0.0
31/05:30am 13.5 - - - - E 9 11 5 6 - - 0.0
31/05:00am 13.3 - - - - ENE 11 11 6 6 - - 0.0
31/04:30am 14.4 - - - - E 11 13 6 7 - - 0.0
31/04:00am 14.5 - - - - E 9 9 5 5 - - 0.0
31/03:30am 14.4 - - - - ENE 7 9 4 5 - - 0.0
31/03:00am 15.3 - - - - ENE 7 9 4 5 - - 0.0
31/02:30am 14.6 - - - - E 9 11 5 6 - - 0.0
31/02:00am 14.2 - - - - E 7 7 4 4 - - 0.0
31/01:30am 15.2 - - - - CALM 0 0 0 0 - - 0.0
31/01:00am 15.0 - - - - CALM 0 0 0 0 - - 0.0
31/12:30am 15.8 - - - - E 13 20 7 11 - - 0.0
31/12:00am 15.5 - - - - WNW 7 9 4 5 - - 0.0
 
Date/Time
WST
Temp
°C
App
Temp
°C
Dew
Point
Rel
Hum
%
Delta-T
°C
Wind Press
QNH
hPa
Press
MSL
hPa
Rain
since 9 am
mm
Dir
 
Spd
km/h
Gust
km/h
Spd
kts
Gust
kts
30/11:30pm 16.4 - - - - W 7 7 4 4 - - 0.0
30/11:00pm 16.1 - - - - W 6 7 3 4 - - 0.0
30/10:30pm 17.2 - - - - SSE 6 6 3 3 - - 0.0
30/10:00pm 16.7 - - - - NW 2 9 1 5 - - 0.0
30/09:30pm 18.0 - - - - NW 7 9 4 5 - - 0.0
30/09:00pm 18.0 - - - - NW 9 11 5 6 - - 0.0
30/08:30pm 18.9 - - - - NW 11 11 6 6 - - 0.0
30/08:00pm 20.1 - - - - NW 11 13 6 7 - - 0.0
30/07:30pm 20.5 - - - - NW 11 13 6 7 - - 0.0
30/07:00pm 20.9 - - - - NW 9 13 5 7 - - 0.0
30/06:30pm 21.5 - - - - NW 11 13 6 7 - - 0.0
30/06:00pm 22.6 - - - - W 9 13 5 7 - - 0.0
30/05:30pm 24.3 - - - - WNW 15 20 8 11 - - 0.0
30/05:00pm 26.1 - - - - WNW 15 24 8 13 - - 0.0
30/04:30pm 27.0 - - - - WNW 20 28 11 15 - - 0.0
30/04:00pm 28.5 - - - - WNW 20 30 11 16 - - 0.0
30/03:30pm 30.2 - - - - WNW 19 28 10 15 - - 0.0
30/03:00pm 31.7 - - - - WNW 22 32 12 17 - - 0.0
30/02:30pm 33.4 - - - - N 13 24 7 13 - - 0.0
30/02:00pm 34.1 - - - - N 15 24 8 13 - - 0.0
30/01:30pm 33.7 - - - - NNE 17 30 9 16 - - 0.0
30/01:00pm 33.2 - - - - NNE 19 28 10 15 - - 0.0
30/12:30pm 33.1 - - - - ENE 19 32 10 17 - - 0.0
30/12:00pm 32.8 - - - - NE 19 28 10 15 - - 0.0
30/11:30am 32.3 - - - - NE 20 33 11 18 - - 0.0
30/11:00am 31.8 - - - - NE 19 28 10 15 - - 0.0
30/10:30am 31.1 - - - - ENE 15 24 8 13 - - 0.0
30/10:00am 29.3 - - - - E 15 24 8 13 - - 0.0
30/09:30am 27.9 - - - - E 19 30 10 16 - - 0.0
30/09:00am 26.1 - - - - E 17 26 9 14 - - 0.0
30/08:30am 24.7 - - - - E 20 30 11 16 - - 0.0
30/08:00am 22.5 - - - - E 13 20 7 11 - - 0.0
30/07:30am 19.1 - - - - E 11 15 6 8 - - 0.0
30/07:00am 14.6 - - - - E 9 11 5 6 - - 0.0
30/06:30am 12.7 - - - - E 11 13 6 7 - - 0.0
30/06:00am 13.0 - - - - E 9 11 5 6 - - 0.0
30/05:30am 12.9 - - - - ENE 11 11 6 6 - - 0.0
30/05:00am 13.1 - - - - E 9 11 5 6 - - 0.0
30/04:30am 13.4 - - - - ENE 9 13 5 7 - - 0.0
30/04:00am 14.1 - - - - E 11 13 6 7 - - 0.0
30/03:30am 15.0 - - - - E 11 13 6 7 - - 0.0
30/03:00am 15.4 - - - - ENE 11 13 6 7 - - 0.0
30/02:30am 15.0 - - - - ENE 11 13 6 7 - - 0.0
30/02:00am 14.5 - - - - E 9 11 5 6 - - 0.0
30/01:30am 15.2 - - - - ENE 11 13 6 7 - - 0.0
30/01:00am 15.6 - - - - ENE 11 13 6 7 - - 0.0
30/12:30am 16.0 - - - - ENE 11 13 6 7 - - 0.0
30/12:00am 16.0 - - - - ENE 11 13 6 7 - - 0.0
 
Date/Time
WST
Temp
°C
App
Temp
°C
Dew
Point
Rel
Hum
%
Delta-T
°C
Wind Press
QNH
hPa
Press
MSL
hPa
Rain
since 9 am
mm
Dir
 
Spd
km/h
Gust
km/h
Spd
kts
Gust
kts
29/11:30pm 16.9 - - - - E 7 9 4 5 - - 0.0
29/11:00pm 17.3 - - - - WSW 4 7 2 4 - - 0.0
29/10:30pm 17.2 - - - - NNW 6 7 3 4 - - 0.0
29/10:00pm 17.9 - - - - NNW 7 9 4 5 - - 0.0
29/09:30pm 18.5 - - - - W 7 9 4 5 - - 0.0
29/09:00pm 18.5 - - - - WNW 7 9 4 5 - - 0.0
29/08:30pm 19.8 - - - - WNW 7 9 4 5 - - 0.0
29/08:00pm 20.0 - - - - NW 11 13 6 7 - - 0.0
29/07:30pm 20.6 - - - - NW 9 13 5 7 - - 0.0
29/07:00pm 22.3 - - - - NW 9 13 5 7 - - 0.0
29/06:30pm 23.7 - - - - NNW 9 13 5 7 - - 0.0
29/06:00pm 24.5 - - - - ENE 6 13 3 7 - - 0.0
29/05:30pm 29.2 - - - - SE 9 13 5 7 - - 0.0
29/05:00pm 31.6 - - - - ESE 9 15 5 8 - - 0.0
29/04:30pm 32.6 - - - - ESE 13 22 7 12 - - 0.0
29/04:00pm 33.3 - - - - E 15 26 8 14 - - 0.0
29/03:30pm 33.6 - - - - ESE 17 28 9 15 - - 0.0
29/03:00pm 33.7 - - - - ESE 17 28 9 15 - - 0.0
29/02:30pm 33.7 - - - - ESE 13 24 7 13 - - 0.0
29/02:00pm 33.7 - - - - SE 17 28 9 15 - - 0.0
29/01:30pm 33.7 - - - - ESE 15 28 8 15 - - 0.0
29/01:00pm 33.6 - - - - E 17 30 9 16 - - 0.0
29/12:30pm 33.6 - - - - E 17 26 9 14 - - 0.0
29/12:00pm 32.6 - - - - ENE 17 26 9 14 - - 0.0
29/11:30am 32.0 - - - - ENE 20 28 11 15 - - 0.0
29/11:00am 31.4 - - - - ENE 20 32 11 17 - - 0.0
29/10:30am 30.5 - - - - ENE 24 37 13 20 - - 0.0
29/10:00am 29.5 - - - - ENE 22 35 12 19 - - 0.0
29/09:30am 28.2 - - - - ENE 20 35 11 19 - - 0.0
29/09:00am 26.5 - - - - ENE 20 33 11 18 - - 0.0
29/08:30am 25.7 - - - - ENE 20 32 11 17 - - 0.0
29/08:00am 23.9 - - - - E 17 28 9 15 - - 0.0
29/07:30am 21.2 - - - - ENE 13 20 7 11 - - 0.0
29/07:00am 18.9 - - - - ENE 13 19 7 10 - - 0.0
29/06:30am 17.4 - - - - ENE 13 17 7 9 - - 0.0
29/06:00am 16.6 - - - - ENE 11 13 6 7 - - 0.0
29/05:30am 16.1 - - - - ENE 11 13 6 7 - - 0.0
29/05:00am 15.8 - - - - ENE 11 13 6 7 - - 0.0
29/04:30am 15.6 - - - - E 11 13 6 7 - - 0.0
29/04:00am 16.3 - - - - E 9 13 5 7 - - 0.0
29/03:30am 16.4 - - - - E 7 9 4 5 - - 0.0
29/03:00am 17.2 - - - - CALM 0 0 0 0 - - 0.0
29/02:30am 17.0 - - - - N 4 7 2 4 - - 0.0
29/02:00am 17.2 - - - - N 2 9 1 5 - - 0.0
29/01:30am 18.9 - - - - CALM 0 0 0 0 - - 0.0

Other Formats:

Comma delimited format used in spreadsheet applications
http://www.bom.gov.au/fwo/IDW60801/IDW60801.95204.axf

JavaScript Object Notation format (JSON) in row-major order
http://www.bom.gov.au/fwo/IDW60801/IDW60801.95204.json